Flight Track Log - Related Links

Times and Time Zones

All times are in EDT time to prevent confusion due to time zone crossing. See the SWA2436 flight status page for this flight to view local times or setup timezone preferences in your user account.

Time Position Orientation Groundspeed Altitude Reporting Facility
EDT Latitude Longitude Course Direction KTS MPH feet Rate Location/Type
Fri 09:43:58 AM 34.0547 -117.5672 68° East 172 198 2,000  Level Los Angeles Center
Fri 09:44:17 AM 34.0500 -117.5500 108° East 197 227 2,900 2,439 Climbing Southern California TRACON
Fri 09:46:01 AM 34.0636 -117.4381 82° East 269 310 7,000 1,709 Climbing Los Angeles Center
Fri 09:47:02 AM 34.1211 -117.3772 41° Northeast 280 322 7,600 2,585 Climbing Los Angeles Center
Fri 09:48:04 AM 34.1903 -117.3050 41° Northeast 274 315 12,300 2,976 Climbing Los Angeles Center
Fri 09:49:00 AM 34.3434 -117.9198 68° East  Level FlightAware Approximate
Fri 09:49:05 AM 34.2600 -117.2308 41° Northeast 324 373 13,700  Level Los Angeles Center
Fri 09:50:07 AM 34.3308 -117.1425 46° Northeast 351 404 17,400 3,268 Climbing Los Angeles Center
Fri 09:51:08 AM 34.3822 -117.0369 59° Northeast 364 419 20,400 1,756 Climbing Los Angeles Center
Fri 09:52:10 AM 34.4356 -116.9275 59° Northeast 375 432 21,000 293 Climbing Los Angeles Center
Fri 09:53:11 AM 34.4897 -116.8169 59° Northeast 381 438 21,000 293 Level Los Angeles Center
Fri 09:54:13 AM 34.5464 -116.7056 58° Northeast 382 440 21,600 1,415 Climbing Los Angeles Center
Fri 09:55:14 AM 34.6006 -116.5939 59° Northeast 392 451 23,900 2,049 Climbing Los Angeles Center
Fri 09:56:16 AM 34.6581 -116.4722 60° Northeast 413 475 25,800 2,000 Climbing Los Angeles Center
Fri 09:57:17 AM 34.7325 -116.3206 59° Northeast 434 499 28,000 1,733 Climbing Los Angeles Center
Fri 09:58:31 AM 34.7953 -116.1878 60° Northeast 449 517 29,700 1,632 Climbing Los Angeles Center
Fri 09:59:33 AM 34.8739 -116.0258 59° Northeast 461 531 31,700 1,839 Climbing Los Angeles Center
Fri 10:00:35 AM 34.9406 -115.8886 59° Northeast 469 540 33,500 1,694 Climbing Los Angeles Center
Fri 10:01:37 AM 35.0056 -115.7544 59° Northeast 466 536 35,200 1,694 Climbing Los Angeles Center
Fri 10:02:39 AM 35.0697 -115.6211 60° Northeast 458 527 37,000 1,610 Climbing Los Angeles Center
Fri 10:03:40 AM 35.1431 -115.4656 60° Northeast 445 512 38,500 976 Climbing Los Angeles Center
Fri 10:04:42 AM 35.2083 -115.3267 60° Northeast 444 511 39,000 244 Climbing Los Angeles Center
Fri 10:05:43 AM 35.2711 -115.1911 60° Northeast 454 522 39,000  Level Los Angeles Center
Fri 10:06:45 AM 35.3347 -115.0553 60° Northeast 461 531 39,000  Level Los Angeles Center
Fri 10:07:47 AM 35.3983 -114.9208 60° Northeast 459 528 39,000  Level Los Angeles Center
Fri 10:08:48 AM 35.4603 -114.7867 60° Northeast 456 525 39,000  Level Los Angeles Center
Fri 10:10:02 AM 35.5217 -114.6536 60° Northeast 452 520 39,000  Level Los Angeles Center
Fri 10:11:04 AM 35.5958 -114.4911 61° Northeast 456 525 39,000  Level Los Angeles Center
Fri 10:12:05 AM 35.6703 -114.3289 61° Northeast 456 525 39,000  Level Los Angeles Center
Fri 10:13:07 AM 35.7325 -114.1933 60° Northeast 458 527 39,000  Level Los Angeles Center
Fri 10:14:09 AM 35.7947 -114.0561 61° Northeast 461 531 39,000  Level Los Angeles Center
Fri 10:15:10 AM 35.8572 -113.9183 61° Northeast 463 533 39,000  Level Los Angeles Center
Fri 10:16:12 AM 35.9197 -113.7794 61° Northeast 465 535 39,000  Level Los Angeles Center
Fri 10:17:13 AM 35.9819 -113.6403 61° Northeast 465 535 39,000  Level Los Angeles Center
Fri 10:18:15 AM 36.0444 -113.4997 61° Northeast 467 537 39,000  Level Los Angeles Center
Fri 10:19:17 AM 36.1194 -113.3317 61° Northeast 468 539 39,000  Level Los Angeles Center
Fri 10:20:18 AM 36.1725 -113.2147 61° Northeast 467 537 39,000  Level Los Angeles Center
Fri 10:21:20 AM 36.2456 -113.0467 62° Northeast 465 535 39,000  Level Los Angeles Center
Fri 10:22:22 AM 36.3067 -112.9078 61° Northeast 463 533 39,000  Level Los Angeles Center
Fri 10:23:23 AM 36.3678 -112.7686 61° Northeast 462 532 39,000  Level Los Angeles Center
Fri 10:24:25 AM 36.4289 -112.6283 62° Northeast 463 533 39,000  Level Los Angeles Center
Fri 10:25:27 AM 36.4900 -112.4897 61° Northeast 461 531 39,000  Level Los Angeles Center
Fri 10:26:29 AM 36.5500 -112.3494 62° Northeast 461 531 39,000  Level Los Angeles Center
Fri 10:27:30 AM 36.6222 -112.1806 62° Northeast 463 533 39,000  Level Los Angeles Center
Fri 10:27:59 AM 36.6467 -112.1236 62° Northeast 463 533 39,000  Level Denver Center
Fri 10:29:01 AM 36.7069 -111.9814 62° Northeast 466 536 39,000  Level Denver Center
Fri 10:30:03 AM 36.7686 -111.8394 61° Northeast 468 539 39,000  Level Denver Center
Fri 10:31:05 AM 36.8414 -111.6672 62° Northeast 469 540 39,000  Level Denver Center
Fri 10:32:07 AM 36.9011 -111.5244 62° Northeast 468 539 39,000  Level Denver Center
Fri 10:33:08 AM 36.9619 -111.3817 62° Northeast 467 537 39,000  Level Denver Center
Fri 10:34:10 AM 37.0200 -111.2392 63° Northeast 464 534 39,000  Level Denver Center
Fri 10:35:12 AM 37.0794 -111.0961 62° Northeast 467 537 39,000  Level Denver Center
Fri 10:36:14 AM 37.1383 -110.9522 63° Northeast 469 540 39,000  Level Denver Center
Fri 10:37:16 AM 37.2094 -110.7783 63° Northeast 469 540 39,000  Level Denver Center
Fri 10:38:18 AM 37.2689 -110.6339 63° Northeast 467 537 39,000  Level Denver Center
Fri 10:39:20 AM 37.3289 -110.4889 62° Northeast 469 540 39,000  Level Denver Center
Fri 10:40:22 AM 37.3878 -110.3428 63° Northeast 470 541 39,000  Level Denver Center
Fri 10:41:36 AM 37.4519 -110.1825 63° Northeast 470 541 39,000  Level Denver Center
Fri 10:42:38 AM 37.5264 -109.9953 63° Northeast 467 537 39,000  Level Denver Center
Fri 10:43:40 AM 37.5600 -109.8414 75° East 473 544 39,000  Level Denver Center
Fri 10:44:42 AM 37.5842 -109.6850 79° East 475 547 39,000  Level Denver Center
Fri 10:45:44 AM 37.6094 -109.5264 79° East 479 551 39,000  Level Denver Center
Fri 10:46:46 AM 37.6381 -109.3433 79° East 477 549 39,000  Level Denver Center
Fri 10:47:48 AM 37.6669 -109.1578 79° East 481 554 39,000  Level Denver Center
Fri 10:48:50 AM 37.6894 -109.0028 80° East 473 544 39,000  Level Denver Center
Fri 10:49:52 AM 37.7167 -108.8203 79° East 472 543 39,000  Level Denver Center
Fri 10:50:54 AM 37.7067 -108.6614 95° East 470 541 39,000  Level Denver Center
Fri 10:51:56 AM 37.6425 -108.4942 116° Southeast 476 548 39,000  Level Denver Center
Fri 10:52:58 AM 37.5814 -108.3572 119° Southeast 471 542 39,000  Level Denver Center
Fri 10:54:00 AM 37.5128 -108.1883 117° Southeast 479 551 39,000  Level Denver Center
Fri 10:55:02 AM 37.4981 -108.0292 97° East 483 556 39,000  Level Denver Center
Fri 10:56:04 AM 37.4953 -107.8700 91° East 477 549 39,000  Level Denver Center
Fri 10:57:06 AM 37.5744 -107.7225 56° Northeast 463 533 39,000  Level Denver Center
Fri 10:58:08 AM 37.6558 -107.6064 48° Northeast 460 529 39,000  Level Denver Center
Fri 10:59:11 AM 37.7486 -107.4686 50° Northeast 460 529 39,000  Level Denver Center
Fri 11:00:13 AM 37.8286 -107.3511 49° Northeast 460 529 39,000  Level Denver Center
Fri 11:01:15 AM 37.9222 -107.2150 49° Northeast 459 528 39,000  Level Denver Center
Fri 11:02:29 AM 38.0019 -107.0961 50° Northeast 457 526 39,000  Level Denver Center
Fri 11:03:31 AM 38.1083 -106.9392 49° Northeast 461 531 39,000 -48 Level Denver Center
Fri 11:04:33 AM 38.1883 -106.8211 49° Northeast 458 527 38,900 -581 Descending Denver Center
Fri 11:05:35 AM 38.2822 -106.6825 49° Northeast 463 533 37,800 -968 Descending Denver Center
Fri 11:06:37 AM 38.3567 -106.5697 50° Northeast 457 526 36,900 -912 Descending Denver Center
Fri 11:07:40 AM 38.4383 -106.4481 49° Northeast 454 522 35,900 -1,016 Descending Denver Center
Fri 11:08:41 AM 38.5394 -106.2975 49° Northeast 467 537 34,800 -1,016 Descending Denver Center
Fri 11:09:44 AM 38.6267 -106.1628 50° Northeast 470 541 33,800 -1,200 Descending Denver Center
Fri 11:10:46 AM 38.7114 -106.0342 50° Northeast 468 539 32,300 -2,032 Descending Denver Center
Fri 11:11:48 AM 38.7961 -105.9058 50° Northeast 468 539 29,600 -2,468 Descending Denver Center
Fri 11:12:50 AM 38.8819 -105.7831 48° Northeast 459 528 27,200 -2,274 Descending Denver Center
Fri 11:13:52 AM 38.9692 -105.6725 45° Northeast 442 509 24,900 -2,323 Descending Denver Center
Fri 11:14:54 AM 39.0622 -105.5531 45° Northeast 427 491 22,400 -2,032 Descending Denver Center
Fri 11:15:56 AM 39.1353 -105.4589 45° Northeast 415 478 20,700 -1,887 Descending Denver Center
Fri 11:16:58 AM 39.2244 -105.3461 44° Northeast 389 448 18,500 -1,597 Descending Denver Center
Fri 11:18:00 AM 39.2719 -105.2361 61° Northeast 357 411 17,400 -1,306 Descending Denver Center
Fri 11:19:02 AM 39.2958 -105.1028 77° East 354 407 15,800 -1,403 Descending Denver Center
Fri 11:20:04 AM 39.3189 -104.9833 76° East 344 396 14,500 -968 Descending Denver Center
Fri 11:21:06 AM 39.3394 -104.8669 77° East 309 356 13,800 -871 Descending Denver Center
Fri 11:22:08 AM 39.3722 -104.7756 65° Northeast 289 333 12,700 -871 Descending Denver Center
Fri 11:23:10 AM 39.4281 -104.7058 44° Northeast 271 312 12,000 -387 Descending Denver Center
Fri 11:24:12 AM 39.4883 -104.6586 31° Northeast 260 299 11,900 -629 Descending Denver Center
Fri 11:25:14 AM 39.5600 -104.6453 North 241 277 10,700 -1,210 Descending Denver Center
Fri 11:26:16 AM 39.6258 -104.6442 North 238 274 9,400 -1,258 Descending Denver Center
Fri 11:27:18 AM 39.6953 -104.6439 360° North 233 268 8,100 -1,161 Descending Denver Center
Fri 11:28:20 AM 39.7489 -104.6433 360° North 198 228 7,000 -871 Descending Denver Center
Fri 11:29:22 AM 39.7864 -104.6431 360° North 168 193 6,300 -816 Descending Denver Center
Fri 11:30:25 AM 39.8364 -104.6419 North 150 173 5,300 -952 Descending Denver Center
Fri 11:32:00 AM 39.8500 -104.6667 North  Level FlightAware Approximate
Fri 11:39:00 AM 39.8617 -104.6732 North  Level Estimated
Fri 11:40:00 AM 39.8617 -104.6732 North  Level Estimated
Fri 11:41:00 AM 39.8617 -104.6732 North  Level Estimated

Login

Don't have an account? Register now (free) for customized features, flight alerts, and more!